createdAt,value
2023-04-10T00:00:26.468Z,5.93
2023-04-10T00:01:29.137Z,4.54
2023-04-10T00:02:32.345Z,4.18
2023-04-10T00:03:35.175Z,3.69
2023-04-10T00:04:37.949Z,4.77
2023-04-10T00:05:40.728Z,3.33
2023-04-10T00:06:43.332Z,3.94
2023-04-10T00:07:46.277Z,6.15
2023-04-10T00:08:49.146Z,4.78
2023-04-10T00:09:52.125Z,4.66
2023-04-10T00:10:55.101Z,3.58
2023-04-10T00:11:57.979Z,3.66
2023-04-10T00:13:01.465Z,4.08
2023-04-10T00:14:04.547Z,3.42
2023-04-10T00:15:07.441Z,2.85
2023-04-10T00:16:10.711Z,2.78
2023-04-10T00:17:13.579Z,4.90
2023-04-10T00:18:16.582Z,2.93
2023-04-10T00:19:19.438Z,2.01
2023-04-10T00:20:22.305Z,2.80
2023-04-10T00:21:25.182Z,3.38
2023-04-10T00:22:28.054Z,2.85
2023-04-10T00:23:31.034Z,2.79
2023-04-10T00:24:33.906Z,4.25
2023-04-10T00:25:36.781Z,2.18
2023-04-10T00:26:39.665Z,2.20
2023-04-10T00:27:42.530Z,3.40
2023-04-10T00:28:45.619Z,3.50
2023-04-10T00:29:48.379Z,1.82
2023-04-10T00:30:51.671Z,4.15
2023-04-10T00:31:54.576Z,4.12
2023-04-10T00:32:57.474Z,2.84
2023-04-10T00:34:00.402Z,2.11
2023-04-10T00:35:03.271Z,4.22
2023-04-10T00:36:06.332Z,3.19
2023-04-10T00:37:09.118Z,3.81
2023-04-10T00:38:12.049Z,3.51
2023-04-10T00:39:14.980Z,3.47
2023-04-10T00:40:17.537Z,3.02
2023-04-10T00:41:20.217Z,3.09
2023-04-10T00:42:22.879Z,3.30
2023-04-10T00:43:25.562Z,2.83
2023-04-10T00:44:28.116Z,6.23
2023-04-10T00:45:30.700Z,1.70
2023-04-10T00:46:33.340Z,2.84
2023-04-10T00:47:36.303Z,3.11
2023-04-10T00:48:39.129Z,2.62
2023-04-10T00:49:41.982Z,4.38
2023-04-10T00:50:44.854Z,2.99
2023-04-10T00:51:47.832Z,3.18
2023-04-10T00:52:50.609Z,2.42
2023-04-10T00:53:54.020Z,2.35
2023-04-10T00:54:57.069Z,2.88
2023-04-10T00:55:59.749Z,3.33
2023-04-10T00:57:02.681Z,2.97
2023-04-10T00:58:05.700Z,3.26
2023-04-10T00:59:08.564Z,1.80
2023-04-10T01:00:11.546Z,2.85
2023-04-10T01:01:14.466Z,2.02
2023-04-10T01:02:17.434Z,2.87
2023-04-10T01:03:20.568Z,2.89
2023-04-10T01:04:23.436Z,1.90
2023-04-10T01:05:26.432Z,3.92
2023-04-10T01:06:29.413Z,6.98
2023-04-10T01:07:32.281Z,1.51
2023-04-10T01:08:34.958Z,2.53
2023-04-10T01:09:37.821Z,7.52
2023-04-10T01:10:40.795Z,2.91
2023-04-10T01:11:43.570Z,3.15
2023-04-10T01:12:46.449Z,2.58
2023-04-10T01:13:49.115Z,2.57
2023-04-10T01:14:51.853Z,3.00
2023-04-10T01:15:54.669Z,3.05
2023-04-10T01:16:57.356Z,2.88
2023-04-10T01:17:59.939Z,1.61
2023-04-10T01:19:02.583Z,2.01
2023-04-10T01:20:05.237Z,3.60
2023-04-10T01:21:07.802Z,3.42
2023-04-10T01:22:10.275Z,3.79
2023-04-10T01:23:12.842Z,11.61
2023-04-10T01:24:15.509Z,1.88
2023-04-10T01:25:18.180Z,2.44
2023-04-10T01:26:21.160Z,2.23
2023-04-10T01:27:23.820Z,2.58
2023-04-10T01:28:26.494Z,2.56
2023-04-10T01:29:29.161Z,4.56
2023-04-10T01:30:31.838Z,2.05
2023-04-10T01:31:34.704Z,2.87
2023-04-10T01:32:37.602Z,2.85
2023-04-10T01:33:40.354Z,2.33
2023-04-10T01:34:43.082Z,2.86
2023-04-10T01:35:45.740Z,2.13
2023-04-10T01:36:48.365Z,1.99
2023-04-10T01:37:51.238Z,3.18
2023-04-10T01:38:53.916Z,1.92
2023-04-10T01:39:56.575Z,1.72
2023-04-10T01:40:59.462Z,2.69
2023-04-10T01:42:02.333Z,3.90
2023-04-10T01:43:05.309Z,2.48
2023-04-10T01:44:08.080Z,1.56
2023-04-10T01:45:10.746Z,2.20
2023-04-10T01:46:13.661Z,3.08
2023-04-10T01:47:16.532Z,2.30
2023-04-10T01:48:19.275Z,3.72
2023-04-10T01:49:22.142Z,3.25
2023-04-10T01:50:25.131Z,2.51
2023-04-10T01:51:28.014Z,2.87
2023-04-10T01:52:30.875Z,2.38
2023-04-10T01:53:35.232Z,2.30
2023-04-10T01:54:38.053Z,5.70
2023-04-10T01:55:40.954Z,9.19
2023-04-10T01:56:43.710Z,2.48
2023-04-10T01:57:46.689Z,3.29
2023-04-10T01:58:49.960Z,3.36
2023-04-10T01:59:52.835Z,2.73
2023-04-10T02:00:55.710Z,2.30
2023-04-10T02:01:58.470Z,2.12
2023-04-10T02:03:01.519Z,2.23
2023-04-10T02:04:04.401Z,2.15
2023-04-10T02:05:07.065Z,2.69
2023-04-10T02:06:09.679Z,1.88
2023-04-10T02:07:12.444Z,2.17
2023-04-10T02:08:15.626Z,2.35
2023-04-10T02:09:18.513Z,2.39
2023-04-10T02:10:21.068Z,2.70
2023-04-10T02:11:23.949Z,2.13
2023-04-10T02:12:26.820Z,2.30
2023-04-10T02:13:29.810Z,1.81
2023-04-10T02:14:32.675Z,1.98
2023-04-10T02:15:35.579Z,2.29
2023-04-10T02:16:38.426Z,3.08
2023-04-10T02:17:41.335Z,6.32
2023-04-10T02:18:43.963Z,4.35
2023-04-10T02:19:46.849Z,5.93
2023-04-10T02:20:49.417Z,2.85
2023-04-10T02:21:52.281Z,3.58
2023-04-10T02:22:55.159Z,3.53
2023-04-10T02:23:58.043Z,1.99
2023-04-10T02:25:00.910Z,2.68
2023-04-10T02:26:03.887Z,1.97
2023-04-10T02:27:06.867Z,1.71
2023-04-10T02:28:09.739Z,1.69
2023-04-10T02:29:12.911Z,2.82
2023-04-10T02:30:15.896Z,2.32
2023-04-10T02:31:18.790Z,3.55
2023-04-10T02:32:21.757Z,1.82
2023-04-10T02:33:24.617Z,3.20
2023-04-10T02:34:28.005Z,2.31
2023-04-10T02:35:30.958Z,3.57
2023-04-10T02:36:33.856Z,1.75
2023-04-10T02:37:37.786Z,1.69
2023-04-10T02:38:40.583Z,2.01
2023-04-10T02:39:43.609Z,2.00
2023-04-10T02:40:46.493Z,2.22
2023-04-10T02:41:49.767Z,1.56
2023-04-10T02:42:52.455Z,2.15
2023-04-10T02:43:55.185Z,1.99
2023-04-10T02:44:57.877Z,1.86
2023-04-10T02:46:00.545Z,2.55
2023-04-10T02:47:03.301Z,2.47
2023-04-10T02:48:05.911Z,2.66
2023-04-10T02:49:08.455Z,2.00
2023-04-10T02:50:11.138Z,2.16
2023-04-10T02:51:13.998Z,1.81
2023-04-10T02:52:16.875Z,2.78
2023-04-10T02:53:19.754Z,2.45
2023-04-10T02:54:22.636Z,2.24
2023-04-10T02:55:25.598Z,3.35
2023-04-10T02:56:28.477Z,1.30
2023-04-10T02:57:31.353Z,2.84
2023-04-10T02:58:34.247Z,2.56
2023-04-10T02:59:37.105Z,2.42
2023-04-10T03:00:40.078Z,2.02
2023-04-10T03:01:42.936Z,2.82
2023-04-10T03:02:45.972Z,2.75
2023-04-10T03:03:48.985Z,2.39
2023-04-10T03:04:51.953Z,2.71
2023-04-10T03:05:54.757Z,3.45
2023-04-10T03:06:57.561Z,1.77
2023-04-10T03:08:00.411Z,2.62
2023-04-10T03:09:03.174Z,2.35
2023-04-10T03:10:06.061Z,3.61
2023-04-10T03:11:08.624Z,3.40
2023-04-10T03:12:11.592Z,2.56
2023-04-10T03:13:15.491Z,3.07
2023-04-10T03:14:18.369Z,3.09
2023-04-10T03:15:21.243Z,3.15
2023-04-10T03:16:24.505Z,4.88
2023-04-10T03:17:27.516Z,2.69
2023-04-10T03:18:30.386Z,2.34
2023-04-10T03:19:33.254Z,2.21
2023-04-10T03:20:36.027Z,2.21
2023-04-10T03:21:39.520Z,2.51
2023-04-10T03:22:42.386Z,2.30
2023-04-10T03:23:45.264Z,3.92
2023-04-10T03:24:48.461Z,3.16
2023-04-10T03:25:51.421Z,2.16
2023-04-10T03:26:55.840Z,2.89
2023-04-10T03:27:58.615Z,3.60
2023-04-10T03:29:01.278Z,3.39
2023-04-10T03:30:03.961Z,3.65
2023-04-10T03:31:06.672Z,2.80
2023-04-10T03:32:09.803Z,1.65
2023-04-10T03:33:12.508Z,2.52
2023-04-10T03:34:15.139Z,2.75
2023-04-10T03:35:18.012Z,3.40
2023-04-10T03:36:20.918Z,4.06
2023-04-10T03:37:36.119Z,1.58
2023-04-10T03:38:38.626Z,1.15
2023-04-10T03:39:41.386Z,1.78
2023-04-10T03:40:44.058Z,3.63
2023-04-10T03:41:46.626Z,3.11
2023-04-10T03:42:49.194Z,2.37
2023-04-10T03:43:52.273Z,3.15
2023-04-10T03:44:55.352Z,2.86
2023-04-10T03:45:58.031Z,2.97
2023-04-10T03:47:00.906Z,4.08
2023-04-10T03:48:04.044Z,2.28
2023-04-10T03:49:06.856Z,2.27
2023-04-10T03:50:09.738Z,6.54
2023-04-10T03:51:12.506Z,4.97
2023-04-10T03:52:15.375Z,2.05
2023-04-10T03:53:18.252Z,5.05
2023-04-10T03:54:21.122Z,4.54
2023-04-10T03:55:24.227Z,2.42
2023-04-10T03:56:27.072Z,4.39
2023-04-10T03:57:30.059Z,4.00
2023-04-10T03:58:33.042Z,6.02
2023-04-10T03:59:38.962Z,4.25
2023-04-10T04:00:40.340Z,3.28
2023-04-10T04:01:43.350Z,2.50
2023-04-10T04:02:46.632Z,2.12
2023-04-10T04:03:51.344Z,3.58
2023-04-10T04:04:54.410Z,2.28
2023-04-10T04:05:57.257Z,2.10
2023-04-10T04:07:00.136Z,2.18
2023-04-10T04:08:02.906Z,1.29
2023-04-10T04:09:06.076Z,3.12
2023-04-10T04:10:08.956Z,6.32
2023-04-10T04:11:11.929Z,5.52
2023-04-10T04:12:14.801Z,3.36
2023-04-10T04:13:17.677Z,3.75
2023-04-10T04:14:20.654Z,1.78
2023-04-10T04:15:23.640Z,1.62
2023-04-10T04:16:26.531Z,1.67
2023-04-10T04:17:29.396Z,2.42
2023-04-10T04:18:32.253Z,2.71
2023-04-10T04:19:35.235Z,1.86
2023-04-10T04:20:38.002Z,3.44
2023-04-10T04:21:40.575Z,2.52
2023-04-10T04:22:43.245Z,3.88
2023-04-10T04:23:45.912Z,3.58
2023-04-10T04:24:48.680Z,3.64
2023-04-10T04:25:51.261Z,3.62
2023-04-10T04:26:53.949Z,4.21
2023-04-10T04:27:56.485Z,3.50
2023-04-10T04:28:59.055Z,3.03
2023-04-10T04:30:01.626Z,2.88
2023-04-10T04:31:04.306Z,3.58
2023-04-10T04:32:07.094Z,3.73
2023-04-10T04:33:10.016Z,4.19
2023-04-10T04:34:13.224Z,5.73
2023-04-10T04:35:16.715Z,3.24
2023-04-10T04:36:19.684Z,3.10
2023-04-10T04:37:22.465Z,4.97
2023-04-10T04:38:25.352Z,7.52
2023-04-10T04:39:28.213Z,5.85
2023-04-10T04:40:31.599Z,6.38
2023-04-10T04:41:34.383Z,4.77
2023-04-10T04:42:37.368Z,4.71
2023-04-10T04:43:40.226Z,5.42
2023-04-10T04:44:43.100Z,3.40
2023-04-10T04:45:45.707Z,4.57
2023-04-10T04:46:48.235Z,6.50
2023-04-10T04:47:51.116Z,3.36
2023-04-10T04:48:53.676Z,5.15
2023-04-10T04:49:56.278Z,4.55
2023-04-10T04:50:59.632Z,5.08
2023-04-10T04:52:02.809Z,4.02
2023-04-10T04:53:07.840Z,6.23
2023-04-10T04:54:09.785Z,5.29
2023-04-10T04:55:12.665Z,4.67
2023-04-10T04:56:15.655Z,6.41
2023-04-10T04:57:18.523Z,5.90
2023-04-10T04:58:21.503Z,6.61
2023-04-10T04:59:24.469Z,7.24
2023-04-10T05:00:27.349Z,9.07
2023-04-10T05:01:30.579Z,8.45
2023-04-10T05:02:33.513Z,6.28
2023-04-10T05:03:36.407Z,5.39
2023-04-10T05:04:39.355Z,5.38
2023-04-10T05:05:42.143Z,5.05
2023-04-10T05:06:45.517Z,4.98
2023-04-10T05:07:48.397Z,6.38
2023-04-10T05:08:51.263Z,4.41
2023-04-10T05:09:54.132Z,4.49
2023-04-10T05:10:56.705Z,5.79
2023-04-10T05:11:59.992Z,6.69
2023-04-10T05:13:11.265Z,5.83
2023-04-10T05:14:14.235Z,2.12
2023-04-10T05:15:17.113Z,7.01
2023-04-10T05:16:20.080Z,9.07
2023-04-10T05:17:23.020Z,5.72
2023-04-10T05:18:26.043Z,4.57
2023-04-10T05:19:28.731Z,4.36
2023-04-10T05:20:31.492Z,6.57
2023-04-10T05:21:34.359Z,6.27
2023-04-10T05:22:37.056Z,4.45
2023-04-10T05:23:40.157Z,3.68
2023-04-10T05:24:42.885Z,4.09
2023-04-10T05:25:45.558Z,4.25
2023-04-10T05:26:48.222Z,5.86
2023-04-10T05:27:50.896Z,6.10
2023-04-10T05:28:53.909Z,5.24
2023-04-10T05:29:58.069Z,5.68
2023-04-10T05:31:01.023Z,5.84
2023-04-10T05:32:04.141Z,5.55
2023-04-10T05:33:07.001Z,4.67
2023-04-10T05:34:09.980Z,4.73
2023-04-10T05:35:12.850Z,5.97
2023-04-10T05:36:15.858Z,4.25
2023-04-10T05:37:18.714Z,4.18
2023-04-10T05:38:21.815Z,6.28
2023-04-10T05:39:24.895Z,6.19
2023-04-10T05:40:27.648Z,6.75
2023-04-10T05:41:30.412Z,6.05
2023-04-10T05:42:33.285Z,6.75
2023-04-10T05:43:36.265Z,7.35
2023-04-10T05:44:39.239Z,5.69
2023-04-10T05:45:43.717Z,5.96
2023-04-10T05:46:46.601Z,5.00
2023-04-10T05:47:49.758Z,4.89
2023-04-10T05:48:52.895Z,4.09
2023-04-10T05:49:56.085Z,4.14
2023-04-10T05:51:00.346Z,5.38
2023-04-10T05:52:03.052Z,5.64
2023-04-10T05:53:06.026Z,5.28
2023-04-10T05:54:08.915Z,5.60
2023-04-10T05:55:11.994Z,5.17
2023-04-10T05:56:14.750Z,3.93
2023-04-10T05:57:17.641Z,3.61
2023-04-10T05:58:20.604Z,3.95
2023-04-10T05:59:24.708Z,6.35
2023-04-10T06:00:27.595Z,5.54
2023-04-10T06:01:35.710Z,4.25
2023-04-10T06:02:38.551Z,4.12
2023-04-10T06:03:41.693Z,5.11
2023-04-10T06:04:44.758Z,5.00
2023-04-10T06:05:48.008Z,7.14
2023-04-10T06:06:50.668Z,4.08
2023-04-10T06:07:53.336Z,5.65
2023-04-10T06:08:56.084Z,6.02
2023-04-10T06:09:58.893Z,4.58
2023-04-10T06:11:01.883Z,3.86
2023-04-10T06:12:04.547Z,6.94
2023-04-10T06:13:09.837Z,7.03
2023-04-10T06:14:11.300Z,5.11
2023-04-10T06:15:13.878Z,4.39
2023-04-10T06:16:17.090Z,4.44
2023-04-10T06:17:19.752Z,4.15
2023-04-10T06:18:22.804Z,5.35
2023-04-10T06:19:25.575Z,8.08
2023-04-10T06:20:28.300Z,6.17
2023-04-10T06:21:31.032Z,5.52
2023-04-10T06:22:33.582Z,6.03
2023-04-10T06:23:36.263Z,4.69
2023-04-10T06:24:38.935Z,5.70
2023-04-10T06:25:41.597Z,4.07
2023-04-10T06:26:44.363Z,5.10
2023-04-10T06:27:47.032Z,4.86
2023-04-10T06:28:50.432Z,5.37
2023-04-10T06:29:53.202Z,5.22
2023-04-10T06:30:56.218Z,4.66
2023-04-10T06:31:59.355Z,5.68
2023-04-10T06:33:09.303Z,3.92
2023-04-10T06:34:12.062Z,4.12
2023-04-10T06:35:14.745Z,6.29
2023-04-10T06:36:17.827Z,6.72
2023-04-10T06:37:21.013Z,5.24
2023-04-10T06:38:24.072Z,4.80
2023-04-10T06:39:26.860Z,7.25
2023-04-10T06:40:35.963Z,3.90
2023-04-10T06:41:38.648Z,5.75
2023-04-10T06:42:41.512Z,6.21
2023-04-10T06:43:44.499Z,5.93
2023-04-10T06:44:47.092Z,6.25
2023-04-10T06:45:50.136Z,7.47
2023-04-10T06:46:52.855Z,6.08
2023-04-10T06:47:55.580Z,5.96
2023-04-10T06:48:58.089Z,7.14
2023-04-10T06:50:04.215Z,5.17
2023-04-10T06:51:06.878Z,5.80
2023-04-10T06:52:09.547Z,6.68
2023-04-10T06:53:12.512Z,6.75
2023-04-10T06:54:15.287Z,5.01
2023-04-10T06:55:17.870Z,7.97
2023-04-10T06:56:20.485Z,6.01
2023-04-10T06:57:23.098Z,5.54
2023-04-10T06:58:26.182Z,4.20
2023-04-10T06:59:28.848Z,5.32
2023-04-10T07:00:31.552Z,4.64
2023-04-10T07:01:34.446Z,5.07
2023-04-10T07:02:37.074Z,4.66
2023-04-10T07:03:40.069Z,5.65
2023-04-10T07:04:42.909Z,5.92
2023-04-10T07:05:46.188Z,6.37
2023-04-10T07:06:51.284Z,6.12
2023-04-10T07:07:54.021Z,6.52
2023-04-10T07:08:56.873Z,6.84
2023-04-10T07:09:59.972Z,4.81
2023-04-10T07:11:02.735Z,5.83
2023-04-10T07:12:05.595Z,5.14
2023-04-10T07:13:08.263Z,5.35
2023-04-10T07:14:11.851Z,4.93
2023-04-10T07:15:14.852Z,6.27
2023-04-10T07:16:17.760Z,5.56
2023-04-10T07:17:20.620Z,7.42
2023-04-10T07:18:23.476Z,5.82
2023-04-10T07:19:26.738Z,4.62
2023-04-10T07:20:29.642Z,5.76
2023-04-10T07:21:32.394Z,6.86
2023-04-10T07:22:35.466Z,6.50
2023-04-10T07:23:38.461Z,5.04
2023-04-10T07:24:41.737Z,6.76
2023-04-10T07:25:44.694Z,4.92
2023-04-10T07:26:47.684Z,5.77
2023-04-10T07:27:55.390Z,9.24
2023-04-10T07:28:58.147Z,6.75
2023-04-10T07:30:01.598Z,6.30
2023-04-10T07:31:04.729Z,8.19
2023-04-10T07:32:07.674Z,9.06
2023-04-10T07:33:10.714Z,6.16
2023-04-10T07:34:13.547Z,5.15
2023-04-10T07:35:16.418Z,7.40
2023-04-10T07:36:19.032Z,6.17
2023-04-10T07:37:21.859Z,10.67
2023-04-10T07:38:30.364Z,6.75
2023-04-10T07:39:32.937Z,8.05
2023-04-10T07:40:35.713Z,5.88
2023-04-10T07:41:38.710Z,7.00
2023-04-10T07:42:41.550Z,5.46
2023-04-10T07:43:44.352Z,6.35
2023-04-10T07:44:47.401Z,7.84
2023-04-10T07:45:50.421Z,8.43
2023-04-10T07:46:53.758Z,9.45
2023-04-10T07:47:56.902Z,7.85
2023-04-10T07:48:59.736Z,5.02
2023-04-10T07:50:03.698Z,5.76
2023-04-10T07:51:06.817Z,7.87
2023-04-10T07:52:09.582Z,6.55
2023-04-10T07:53:12.477Z,7.65
2023-04-10T07:54:15.621Z,7.64
2023-04-10T07:55:20.696Z,7.98
2023-04-10T07:56:23.634Z,8.28
2023-04-10T07:57:26.523Z,9.15
2023-04-10T07:58:29.784Z,7.52
2023-04-10T07:59:32.778Z,6.64
2023-04-10T08:00:36.061Z,7.14
2023-04-10T08:01:41.989Z,8.72
2023-04-10T08:02:44.802Z,7.50
2023-04-10T08:03:48.114Z,5.25
2023-04-10T08:04:51.129Z,7.52
2023-04-10T08:05:54.022Z,5.20
2023-04-10T08:06:57.104Z,5.50
2023-04-10T08:08:00.163Z,6.87
2023-04-10T08:09:04.878Z,5.64
2023-04-10T08:10:07.974Z,6.41
2023-04-10T08:11:12.402Z,7.84
2023-04-10T08:12:15.965Z,6.11
2023-04-10T08:13:19.344Z,5.14
2023-04-10T08:14:22.238Z,7.38
2023-04-10T08:15:25.051Z,7.82
2023-04-10T08:16:27.825Z,6.02
2023-04-10T08:17:30.788Z,7.22
2023-04-10T08:18:33.936Z,7.21
2023-04-10T08:19:36.822Z,5.21
2023-04-10T08:20:39.597Z,6.55
2023-04-10T08:21:42.458Z,5.24
2023-04-10T08:22:46.040Z,8.23
2023-04-10T08:23:49.154Z,8.70
2023-04-10T08:24:52.006Z,8.38
2023-04-10T08:25:55.275Z,7.41
2023-04-10T08:26:58.663Z,11.50
2023-04-10T08:28:02.254Z,6.95
2023-04-10T08:29:05.023Z,9.13
2023-04-10T08:30:07.827Z,8.15
2023-04-10T08:31:10.823Z,6.26
2023-04-10T08:32:14.057Z,7.18
2023-04-10T08:33:16.846Z,8.57
2023-04-10T08:34:19.514Z,8.19
2023-04-10T08:35:22.689Z,8.33
2023-04-10T08:36:25.561Z,8.93
2023-04-10T08:37:28.839Z,8.48
2023-04-10T08:38:32.126Z,7.42
2023-04-10T08:39:35.213Z,9.61
2023-04-10T08:40:37.994Z,8.12
2023-04-10T08:41:41.567Z,6.87
2023-04-10T08:42:44.358Z,6.52
2023-04-10T08:43:47.444Z,8.62
2023-04-10T08:44:50.323Z,8.65
2023-04-10T08:45:53.139Z,7.50
2023-04-10T08:46:56.143Z,7.99
2023-04-10T08:47:59.975Z,7.15
2023-04-10T08:49:02.952Z,8.66
2023-04-10T08:50:07.608Z,8.73
2023-04-10T08:51:15.547Z,8.83
2023-04-10T08:52:14.947Z,8.64
2023-04-10T08:53:17.715Z,8.98
2023-04-10T08:54:20.989Z,9.52
2023-04-10T08:55:23.978Z,9.88
2023-04-10T08:56:27.051Z,9.20
2023-04-10T08:57:29.952Z,8.12
2023-04-10T08:58:33.199Z,8.33
2023-04-10T08:59:36.498Z,8.73
2023-04-10T09:00:45.588Z,9.54
2023-04-10T09:01:48.960Z,7.67
2023-04-10T09:02:52.528Z,7.30
2023-04-10T09:03:56.183Z,8.32
2023-04-10T09:04:59.476Z,9.55
2023-04-10T09:06:02.448Z,11.01
2023-04-10T09:07:12.061Z,8.36
2023-04-10T09:08:15.374Z,12.34
2023-04-10T09:09:18.429Z,12.23
2023-04-10T09:10:21.611Z,12.54
2023-04-10T09:11:24.390Z,11.78
2023-04-10T09:12:27.174Z,11.25
2023-04-10T09:13:30.249Z,11.92
2023-04-10T09:14:33.236Z,10.55
2023-04-10T09:15:35.914Z,9.97
2023-04-10T09:16:38.953Z,9.59
2023-04-10T09:17:42.160Z,8.57
2023-04-10T09:18:45.049Z,11.59
2023-04-10T09:19:47.724Z,7.66
2023-04-10T09:20:56.440Z,9.83
2023-04-10T09:21:59.280Z,10.56
2023-04-10T09:23:04.398Z,17.48
2023-04-10T09:24:07.293Z,9.76
2023-04-10T09:25:09.859Z,8.72
2023-04-10T09:26:13.334Z,10.08
2023-04-10T09:27:16.220Z,7.95
2023-04-10T09:28:19.499Z,8.20
2023-04-10T09:29:22.774Z,10.05
2023-04-10T09:30:25.645Z,10.04
2023-04-10T09:31:28.897Z,8.40
2023-04-10T09:32:33.237Z,7.43
2023-04-10T09:33:36.229Z,7.84
2023-04-10T09:34:39.100Z,8.45
2023-04-10T09:35:41.984Z,9.22
2023-04-10T09:36:45.210Z,9.92
2023-04-10T09:37:48.242Z,8.62
2023-04-10T09:38:51.121Z,10.11
2023-04-10T09:39:54.005Z,8.03
2023-04-10T09:40:56.762Z,10.91
2023-04-10T09:41:59.940Z,8.99
2023-04-10T09:43:09.703Z,9.42
2023-04-10T09:44:13.052Z,9.18
2023-04-10T09:45:16.151Z,10.18
2023-04-10T09:46:19.431Z,13.95
2023-04-10T09:47:23.019Z,12.39
2023-04-10T09:48:28.002Z,11.05
2023-04-10T09:49:31.115Z,7.61
2023-04-10T09:50:37.027Z,9.65
2023-04-10T09:51:38.705Z,12.11
2023-04-10T09:52:42.191Z,10.70
2023-04-10T09:53:45.371Z,9.76
2023-04-10T09:54:48.558Z,8.96
2023-04-10T09:55:51.548Z,11.12
2023-04-10T09:56:54.782Z,9.51
2023-04-10T09:57:58.100Z,9.60
2023-04-10T09:59:01.004Z,8.40
2023-04-10T10:00:04.099Z,7.72
2023-04-10T10:01:07.148Z,8.86
2023-04-10T10:02:10.632Z,8.32
2023-04-10T10:03:13.627Z,9.95
2023-04-10T10:04:16.475Z,7.64
2023-04-10T10:05:19.062Z,7.14
2023-04-10T10:06:22.122Z,7.01
2023-04-10T10:07:25.228Z,7.37
2023-04-10T10:08:28.481Z,7.59
2023-04-10T10:09:34.862Z,6.42
2023-04-10T10:10:37.633Z,6.79
2023-04-10T10:11:42.989Z,7.32
2023-04-10T10:12:46.255Z,7.76
2023-04-10T10:13:50.001Z,5.96
2023-04-10T10:14:53.001Z,7.77
2023-04-10T10:15:56.200Z,5.50
2023-04-10T10:16:59.178Z,4.98
2023-04-10T10:18:02.387Z,4.68
2023-04-10T10:19:05.744Z,5.21
2023-04-10T10:20:08.815Z,4.81
2023-04-10T10:21:11.815Z,5.85
2023-04-10T10:22:14.482Z,6.81
2023-04-10T10:23:17.157Z,6.57
2023-04-10T10:24:20.003Z,5.42
2023-04-10T10:25:22.634Z,6.69
2023-04-10T10:26:25.264Z,4.70
2023-04-10T10:27:28.424Z,4.71
2023-04-10T10:28:31.298Z,4.98
2023-04-10T10:29:34.094Z,5.55
2023-04-10T10:30:36.670Z,4.74
2023-04-10T10:31:41.545Z,4.65
2023-04-10T10:32:44.348Z,5.21
2023-04-10T10:33:47.227Z,4.78
2023-04-10T10:34:50.122Z,5.22
2023-04-10T10:35:53.179Z,4.14
2023-04-10T10:36:55.978Z,4.33
2023-04-10T10:37:58.843Z,5.17
2023-04-10T10:39:01.659Z,5.98
2023-04-10T10:40:05.008Z,4.98
2023-04-10T10:41:12.911Z,4.18
2023-04-10T10:42:19.938Z,4.47
2023-04-10T10:43:22.912Z,5.09
2023-04-10T10:44:26.106Z,4.26
2023-04-10T10:45:29.614Z,4.74
2023-04-10T10:46:35.836Z,5.51
2023-04-10T10:47:38.658Z,4.61
2023-04-10T10:48:41.296Z,4.23
2023-04-10T10:49:43.976Z,4.42
2023-04-10T10:50:49.666Z,3.35
2023-04-10T10:51:52.375Z,3.27
2023-04-10T10:52:55.031Z,4.20
2023-04-10T10:53:57.726Z,3.11
2023-04-10T10:55:07.336Z,2.90
2023-04-10T10:56:10.345Z,4.95
2023-04-10T10:57:13.494Z,3.31
2023-04-10T10:58:16.371Z,3.08
2023-04-10T10:59:19.452Z,4.35
2023-04-10T11:00:28.455Z,4.38
2023-04-10T11:01:31.161Z,2.86
2023-04-10T11:02:34.167Z,3.92
2023-04-10T11:03:37.062Z,4.56
2023-04-10T11:04:39.865Z,3.42
2023-04-10T11:05:42.637Z,4.75
2023-04-10T11:06:45.508Z,3.98
2023-04-10T11:07:48.495Z,4.06
2023-04-10T11:08:51.588Z,3.85
2023-04-10T11:09:54.606Z,3.41
2023-04-10T11:10:57.317Z,3.56
2023-04-10T11:12:00.410Z,3.48
2023-04-10T11:13:03.375Z,3.05
2023-04-10T11:14:07.837Z,5.15
2023-04-10T11:15:10.551Z,4.04
2023-04-10T11:16:13.369Z,4.08
2023-04-10T11:17:18.674Z,2.75
2023-04-10T11:18:21.534Z,3.49
2023-04-10T11:19:24.643Z,4.16
2023-04-10T11:20:27.597Z,3.29
2023-04-10T11:21:30.671Z,4.65
2023-04-10T11:22:33.647Z,4.35
2023-04-10T11:23:36.522Z,4.86
2023-04-10T11:24:41.645Z,3.60
2023-04-10T11:25:44.322Z,3.49
2023-04-10T11:26:47.092Z,3.74
2023-04-10T11:27:50.169Z,2.83
2023-04-10T11:28:53.201Z,4.50
2023-04-10T11:29:56.471Z,5.92
2023-04-10T11:30:59.712Z,6.25
2023-04-10T11:32:02.924Z,3.82
2023-04-10T11:33:10.999Z,3.88
2023-04-10T11:34:14.173Z,3.67
2023-04-10T11:35:17.128Z,2.92
2023-04-10T11:36:19.922Z,4.31
2023-04-10T11:37:25.047Z,3.93
2023-04-10T11:38:27.942Z,3.95
2023-04-10T11:39:30.695Z,4.19
2023-04-10T11:40:33.878Z,4.02
2023-04-10T11:41:36.672Z,3.92
2023-04-10T11:42:39.631Z,4.27
2023-04-10T11:43:42.605Z,5.81
2023-04-10T11:44:47.156Z,4.41
2023-04-10T11:45:50.103Z,4.49
2023-04-10T11:46:52.868Z,3.98
2023-04-10T11:47:55.765Z,5.49
2023-04-10T11:48:59.128Z,5.56
2023-04-10T11:50:02.522Z,6.92
2023-04-10T11:51:05.186Z,7.05
2023-04-10T11:52:08.053Z,6.30
2023-04-10T11:53:10.932Z,5.74
2023-04-10T11:54:14.008Z,4.99
2023-04-10T11:55:16.894Z,4.66
2023-04-10T11:56:20.177Z,4.36
2023-04-10T11:57:23.357Z,5.52
2023-04-10T11:58:26.336Z,5.65
2023-04-10T11:59:31.738Z,4.83
2023-04-10T12:00:34.430Z,4.40
2023-04-10T12:01:39.910Z,3.92
2023-04-10T12:02:43.200Z,5.10
2023-04-10T12:03:46.201Z,4.83
2023-04-10T12:04:50.613Z,4.59
2023-04-10T12:05:53.514Z,5.16
2023-04-10T12:06:56.396Z,3.32
2023-04-10T12:07:59.170Z,5.78
2023-04-10T12:09:02.204Z,5.03
2023-04-10T12:10:11.580Z,5.16
2023-04-10T12:11:14.554Z,4.53
2023-04-10T12:12:19.126Z,5.34
2023-04-10T12:13:21.838Z,5.74
2023-04-10T12:14:24.807Z,4.60
2023-04-10T12:15:27.812Z,3.68
2023-04-10T12:16:30.663Z,3.85
2023-04-10T12:17:33.765Z,5.48
2023-04-10T12:18:43.256Z,4.45
2023-04-10T12:19:45.940Z,3.66
2023-04-10T12:20:48.829Z,4.11
2023-04-10T12:21:51.598Z,3.65
2023-04-10T12:22:54.980Z,4.25
2023-04-10T12:23:57.650Z,2.82
2023-04-10T12:25:00.827Z,3.38
2023-04-10T12:26:03.705Z,3.93
2023-04-10T12:27:06.782Z,4.24
2023-04-10T12:28:09.665Z,3.72
2023-04-10T12:29:12.837Z,3.01
2023-04-10T12:30:17.040Z,3.97
2023-04-10T12:31:19.992Z,3.87
2023-04-10T12:32:22.823Z,3.60
2023-04-10T12:33:25.693Z,4.87
2023-04-10T12:34:28.661Z,3.22
2023-04-10T12:35:31.544Z,6.12
2023-04-10T12:36:34.813Z,4.54
2023-04-10T12:37:37.686Z,3.44
2023-04-10T12:38:40.662Z,4.62
2023-04-10T12:39:43.635Z,4.17
2023-04-10T12:40:46.408Z,3.90
2023-04-10T12:41:49.277Z,3.21
2023-04-10T12:42:52.302Z,4.01
2023-04-10T12:43:55.338Z,3.24
2023-04-10T12:44:58.116Z,4.53
2023-04-10T12:46:00.956Z,3.86
2023-04-10T12:47:04.163Z,3.67
2023-04-10T12:48:07.006Z,3.80
2023-04-10T12:49:09.923Z,4.45
2023-04-10T12:50:12.698Z,3.68
2023-04-10T12:51:15.680Z,4.26
2023-04-10T12:52:22.125Z,4.01
2023-04-10T12:53:25.002Z,4.47
2023-04-10T12:54:28.934Z,5.43
2023-04-10T12:55:32.030Z,4.96
2023-04-10T12:56:34.864Z,6.46
2023-04-10T12:57:37.634Z,4.78
2023-04-10T12:58:40.609Z,3.90
2023-04-10T12:59:43.578Z,6.49
2023-04-10T13:00:58.738Z,3.44
2023-04-10T13:02:02.995Z,4.44
2023-04-10T13:03:06.012Z,4.88
2023-04-10T13:04:09.044Z,4.54
2023-04-10T13:05:15.200Z,3.62
2023-04-10T13:06:20.485Z,3.27
2023-04-10T13:07:23.359Z,4.00
2023-04-10T13:08:28.362Z,3.35
2023-04-10T13:09:31.054Z,4.04
2023-04-10T13:10:33.935Z,4.82
2023-04-10T13:11:37.003Z,4.02
2023-04-10T13:12:39.986Z,4.10
2023-04-10T13:13:43.068Z,4.55
2023-04-10T13:14:45.844Z,4.09
2023-04-10T13:15:48.536Z,4.28
2023-04-10T13:16:51.279Z,3.84
2023-04-10T13:17:54.355Z,3.22
2023-04-10T13:18:57.446Z,4.77
2023-04-10T13:20:00.312Z,5.55
2023-04-10T13:21:03.403Z,5.60
2023-04-10T13:22:06.373Z,5.16
2023-04-10T13:23:09.453Z,4.65
2023-04-10T13:24:14.707Z,3.99
2023-04-10T13:25:16.947Z,3.90
2023-04-10T13:26:21.250Z,4.74
2023-04-10T13:27:23.914Z,4.17
2023-04-10T13:28:26.795Z,7.32
2023-04-10T13:29:29.768Z,5.91
2023-04-10T13:30:32.649Z,4.15
2023-04-10T13:31:35.360Z,3.62
2023-04-10T13:32:38.248Z,4.28
2023-04-10T13:33:40.624Z,4.43
2023-04-10T13:34:43.426Z,4.61
2023-04-10T13:35:46.357Z,3.28
2023-04-10T13:36:49.065Z,5.07
2023-04-10T13:37:51.848Z,5.24
2023-04-10T13:38:54.876Z,4.58
2023-04-10T13:39:58.004Z,4.99
2023-04-10T13:41:00.774Z,3.91
2023-04-10T13:42:03.720Z,4.39
2023-04-10T13:43:06.629Z,5.07
2023-04-10T13:44:09.501Z,5.74
2023-04-10T13:45:12.371Z,4.66
2023-04-10T13:46:15.193Z,5.70
2023-04-10T13:47:19.615Z,4.43
2023-04-10T13:48:29.859Z,4.11
2023-04-10T13:49:26.644Z,4.50
2023-04-10T13:50:29.425Z,4.11
2023-04-10T13:51:32.193Z,4.70
2023-04-10T13:52:35.060Z,4.24
2023-04-10T13:53:37.831Z,4.30
2023-04-10T13:54:40.632Z,4.69
2023-04-10T13:55:43.594Z,3.20
2023-04-10T13:56:46.709Z,3.21
2023-04-10T13:57:49.955Z,3.26
2023-04-10T13:58:52.987Z,3.47
2023-04-10T13:59:55.793Z,4.28